sensor_id;sensor_type;location;lat;lon;timestamp;P1;durP1;ratioP1;P2;durP2;ratioP2
22460;SDS011;11397;48.410;11.468;2023-08-08T00:02:23;3.85;;;3.75;;
22460;SDS011;11397;48.410;11.468;2023-08-08T00:07:26;4.10;;;4.00;;
22460;SDS011;11397;48.410;11.468;2023-08-08T00:12:31;4.10;;;4.00;;
22460;SDS011;11397;48.410;11.468;2023-08-08T00:17:33;4.03;;;3.92;;
22460;SDS011;11397;48.410;11.468;2023-08-08T00:22:36;4.40;;;4.30;;
22460;SDS011;11397;48.410;11.468;2023-08-08T00:27:38;4.18;;;4.07;;
22460;SDS011;11397;48.410;11.468;2023-08-08T00:32:44;4.53;;;4.43;;
22460;SDS011;11397;48.410;11.468;2023-08-08T00:37:48;4.20;;;4.10;;
22460;SDS011;11397;48.410;11.468;2023-08-08T00:42:50;4.20;;;4.10;;
22460;SDS011;11397;48.410;11.468;2023-08-08T00:47:52;4.50;;;4.30;;
22460;SDS011;11397;48.410;11.468;2023-08-08T00:52:56;4.10;;;4.00;;
22460;SDS011;11397;48.410;11.468;2023-08-08T00:57:58;4.00;;;3.90;;
22460;SDS011;11397;48.410;11.468;2023-08-08T01:03:00;4.10;;;4.00;;
22460;SDS011;11397;48.410;11.468;2023-08-08T01:08:04;4.22;;;4.13;;
22460;SDS011;11397;48.410;11.468;2023-08-08T01:13:07;4.30;;;4.20;;
22460;SDS011;11397;48.410;11.468;2023-08-08T01:18:10;4.10;;;4.00;;
22460;SDS011;11397;48.410;11.468;2023-08-08T01:23:14;4.15;;;4.05;;
22460;SDS011;11397;48.410;11.468;2023-08-08T01:28:21;4.30;;;4.20;;
22460;SDS011;11397;48.410;11.468;2023-08-08T01:33:24;4.35;;;4.25;;
22460;SDS011;11397;48.410;11.468;2023-08-08T01:38:28;3.88;;;3.78;;
22460;SDS011;11397;48.410;11.468;2023-08-08T01:43:33;4.30;;;4.20;;
22460;SDS011;11397;48.410;11.468;2023-08-08T01:48:34;4.00;;;3.90;;
22460;SDS011;11397;48.410;11.468;2023-08-08T01:53:36;4.15;;;4.05;;
22460;SDS011;11397;48.410;11.468;2023-08-08T01:58:39;4.25;;;4.15;;
22460;SDS011;11397;48.410;11.468;2023-08-08T02:03:41;4.20;;;4.10;;
22460;SDS011;11397;48.410;11.468;2023-08-08T02:08:45;4.22;;;4.13;;
22460;SDS011;11397;48.410;11.468;2023-08-08T02:13:48;4.05;;;3.95;;
22460;SDS011;11397;48.410;11.468;2023-08-08T02:18:50;4.35;;;4.25;;
22460;SDS011;11397;48.410;11.468;2023-08-08T02:23:54;4.40;;;4.30;;
22460;SDS011;11397;48.410;11.468;2023-08-08T02:28:57;4.22;;;4.13;;
22460;SDS011;11397;48.410;11.468;2023-08-08T02:33:59;4.30;;;4.20;;
22460;SDS011;11397;48.410;11.468;2023-08-08T02:39:00;4.35;;;4.25;;
22460;SDS011;11397;48.410;11.468;2023-08-08T02:44:05;4.10;;;4.00;;
22460;SDS011;11397;48.410;11.468;2023-08-08T02:49:06;4.10;;;4.00;;
22460;SDS011;11397;48.410;11.468;2023-08-08T02:54:09;4.32;;;4.22;;
22460;SDS011;11397;48.410;11.468;2023-08-08T02:59:14;4.30;;;4.20;;
22460;SDS011;11397;48.410;11.468;2023-08-08T03:04:16;4.00;;;3.90;;
22460;SDS011;11397;48.410;11.468;2023-08-08T03:09:18;4.45;;;4.35;;
22460;SDS011;11397;48.410;11.468;2023-08-08T03:14:22;4.40;;;4.30;;
22460;SDS011;11397;48.410;11.468;2023-08-08T03:19:25;4.45;;;4.35;;
22460;SDS011;11397;48.410;11.468;2023-08-08T03:24:28;4.30;;;4.20;;
22460;SDS011;11397;48.410;11.468;2023-08-08T03:29:31;4.43;;;4.32;;
22460;SDS011;11397;48.410;11.468;2023-08-08T03:34:33;4.32;;;4.22;;
22460;SDS011;11397;48.410;11.468;2023-08-08T03:39:37;4.38;;;4.28;;
22460;SDS011;11397;48.410;11.468;2023-08-08T03:44:41;4.20;;;4.10;;
22460;SDS011;11397;48.410;11.468;2023-08-08T03:49:43;4.20;;;4.10;;
22460;SDS011;11397;48.410;11.468;2023-08-08T03:54:47;4.30;;;4.20;;
22460;SDS011;11397;48.410;11.468;2023-08-08T03:59:50;4.25;;;4.15;;
22460;SDS011;11397;48.410;11.468;2023-08-08T04:04:52;4.10;;;4.00;;
22460;SDS011;11397;48.410;11.468;2023-08-08T04:09:54;4.45;;;4.35;;
22460;SDS011;11397;48.410;11.468;2023-08-08T04:14:57;4.35;;;4.25;;
22460;SDS011;11397;48.410;11.468;2023-08-08T04:19:59;4.40;;;4.30;;
22460;SDS011;11397;48.410;11.468;2023-08-08T04:25:01;4.13;;;4.03;;
22460;SDS011;11397;48.410;11.468;2023-08-08T04:30:05;4.20;;;4.10;;
22460;SDS011;11397;48.410;11.468;2023-08-08T04:35:07;4.15;;;4.05;;
22460;SDS011;11397;48.410;11.468;2023-08-08T04:40:09;3.92;;;3.83;;
22460;SDS011;11397;48.410;11.468;2023-08-08T04:45:13;4.10;;;4.00;;
22460;SDS011;11397;48.410;11.468;2023-08-08T04:50:15;4.00;;;3.90;;
22460;SDS011;11397;48.410;11.468;2023-08-08T04:55:17;4.25;;;4.15;;
22460;SDS011;11397;48.410;11.468;2023-08-08T05:00:21;3.95;;;3.85;;
22460;SDS011;11397;48.410;11.468;2023-08-08T05:05:24;3.70;;;3.60;;
22460;SDS011;11397;48.410;11.468;2023-08-08T05:10:27;4.05;;;3.95;;
22460;SDS011;11397;48.410;11.468;2023-08-08T05:15:30;4.40;;;4.30;;
22460;SDS011;11397;48.410;11.468;2023-08-08T05:20:32;3.92;;;3.83;;
22460;SDS011;11397;48.410;11.468;2023-08-08T05:25:34;3.92;;;3.83;;
22460;SDS011;11397;48.410;11.468;2023-08-08T05:30:38;3.97;;;3.88;;
22460;SDS011;11397;48.410;11.468;2023-08-08T05:35:40;3.97;;;3.88;;
22460;SDS011;11397;48.410;11.468;2023-08-08T05:40:41;3.72;;;3.63;;
22460;SDS011;11397;48.410;11.468;2023-08-08T05:45:45;4.13;;;4.03;;
22460;SDS011;11397;48.410;11.468;2023-08-08T05:50:47;4.13;;;4.03;;
22460;SDS011;11397;48.410;11.468;2023-08-08T05:55:49;4.15;;;4.05;;
22460;SDS011;11397;48.410;11.468;2023-08-08T06:00:52;3.70;;;3.60;;
22460;SDS011;11397;48.410;11.468;2023-08-08T06:05:54;4.07;;;3.97;;
22460;SDS011;11397;48.410;11.468;2023-08-08T06:10:56;4.15;;;4.05;;
22460;SDS011;11397;48.410;11.468;2023-08-08T06:16:00;4.20;;;4.10;;
22460;SDS011;11397;48.410;11.468;2023-08-08T06:21:07;4.00;;;3.90;;
22460;SDS011;11397;48.410;11.468;2023-08-08T06:26:08;3.90;;;3.80;;
22460;SDS011;11397;48.410;11.468;2023-08-08T06:31:12;3.88;;;3.78;;
22460;SDS011;11397;48.410;11.468;2023-08-08T06:36:14;4.25;;;4.15;;
22460;SDS011;11397;48.410;11.468;2023-08-08T06:41:16;3.90;;;3.80;;
22460;SDS011;11397;48.410;11.468;2023-08-08T06:46:20;4.10;;;4.00;;
22460;SDS011;11397;48.410;11.468;2023-08-08T06:51:21;4.18;;;4.07;;
22460;SDS011;11397;48.410;11.468;2023-08-08T06:56:23;4.00;;;3.90;;
22460;SDS011;11397;48.410;11.468;2023-08-08T07:01:27;3.90;;;3.80;;
22460;SDS011;11397;48.410;11.468;2023-08-08T07:06:29;3.92;;;3.83;;
22460;SDS011;11397;48.410;11.468;2023-08-08T07:11:31;4.20;;;4.10;;
22460;SDS011;11397;48.410;11.468;2023-08-08T07:16:35;3.75;;;3.65;;
22460;SDS011;11397;48.410;11.468;2023-08-08T07:21:37;3.78;;;3.67;;
22460;SDS011;11397;48.410;11.468;2023-08-08T07:26:39;3.80;;;3.70;;
22460;SDS011;11397;48.410;11.468;2023-08-08T07:31:43;3.90;;;3.80;;
22460;SDS011;11397;48.410;11.468;2023-08-08T07:36:46;3.90;;;3.80;;
22460;SDS011;11397;48.410;11.468;2023-08-08T07:41:48;4.40;;;4.30;;
22460;SDS011;11397;48.410;11.468;2023-08-08T07:46:52;3.85;;;3.75;;
22460;SDS011;11397;48.410;11.468;2023-08-08T07:51:53;4.13;;;4.03;;
22460;SDS011;11397;48.410;11.468;2023-08-08T07:56:55;4.18;;;4.07;;
22460;SDS011;11397;48.410;11.468;2023-08-08T08:01:59;3.92;;;3.83;;
22460;SDS011;11397;48.410;11.468;2023-08-08T08:07:00;3.65;;;3.55;;
22460;SDS011;11397;48.410;11.468;2023-08-08T08:12:03;3.90;;;3.80;;
22460;SDS011;11397;48.410;11.468;2023-08-08T08:17:06;3.42;;;3.33;;
22460;SDS011;11397;48.410;11.468;2023-08-08T08:22:09;4.18;;;4.07;;
22460;SDS011;11397;48.410;11.468;2023-08-08T08:27:11;4.15;;;4.05;;
22460;SDS011;11397;48.410;11.468;2023-08-08T08:32:14;3.83;;;3.63;;
22460;SDS011;11397;48.410;11.468;2023-08-08T08:37:16;3.97;;;3.88;;
22460;SDS011;11397;48.410;11.468;2023-08-08T08:42:18;3.65;;;3.55;;
22460;SDS011;11397;48.410;11.468;2023-08-08T08:47:22;4.18;;;4.07;;
22460;SDS011;11397;48.410;11.468;2023-08-08T08:52:24;4.05;;;3.95;;
22460;SDS011;11397;48.410;11.468;2023-08-08T08:57:26;3.95;;;3.85;;
22460;SDS011;11397;48.410;11.468;2023-08-08T09:02:30;4.00;;;3.90;;
22460;SDS011;11397;48.410;11.468;2023-08-08T09:07:32;4.40;;;4.30;;
22460;SDS011;11397;48.410;11.468;2023-08-08T09:12:34;3.75;;;3.65;;
22460;SDS011;11397;48.410;11.468;2023-08-08T09:17:41;3.97;;;3.88;;
22460;SDS011;11397;48.410;11.468;2023-08-08T09:22:44;4.05;;;3.95;;
22460;SDS011;11397;48.410;11.468;2023-08-08T09:27:46;3.92;;;3.83;;
22460;SDS011;11397;48.410;11.468;2023-08-08T09:32:49;4.00;;;3.90;;
22460;SDS011;11397;48.410;11.468;2023-08-08T09:37:54;4.13;;;4.03;;
22460;SDS011;11397;48.410;11.468;2023-08-08T09:42:56;3.80;;;3.70;;
22460;SDS011;11397;48.410;11.468;2023-08-08T09:48:00;3.78;;;3.67;;
22460;SDS011;11397;48.410;11.468;2023-08-08T09:53:03;4.00;;;3.90;;
22460;SDS011;11397;48.410;11.468;2023-08-08T09:58:05;3.85;;;3.75;;
22460;SDS011;11397;48.410;11.468;2023-08-08T10:03:10;3.50;;;3.40;;
22460;SDS011;11397;48.410;11.468;2023-08-08T10:08:11;3.63;;;3.53;;
22460;SDS011;11397;48.410;11.468;2023-08-08T10:13:19;3.60;;;3.50;;
22460;SDS011;11397;48.410;11.468;2023-08-08T10:18:22;4.10;;;4.00;;
22460;SDS011;11397;48.410;11.468;2023-08-08T10:23:24;3.97;;;3.88;;
22460;SDS011;11397;48.410;11.468;2023-08-08T10:28:27;3.95;;;3.85;;
22460;SDS011;11397;48.410;11.468;2023-08-08T10:33:39;3.90;;;3.80;;
22460;SDS011;11397;48.410;11.468;2023-08-08T10:38:42;3.42;;;3.33;;
22460;SDS011;11397;48.410;11.468;2023-08-08T10:43:47;3.65;;;3.55;;
22460;SDS011;11397;48.410;11.468;2023-08-08T10:48:52;3.97;;;3.88;;
22460;SDS011;11397;48.410;11.468;2023-08-08T10:53:54;3.50;;;3.40;;
22460;SDS011;11397;48.410;11.468;2023-08-08T10:58:56;3.78;;;3.67;;
22460;SDS011;11397;48.410;11.468;2023-08-08T11:04:00;3.50;;;3.40;;
22460;SDS011;11397;48.410;11.468;2023-08-08T11:09:05;4.00;;;3.90;;
22460;SDS011;11397;48.410;11.468;2023-08-08T11:14:10;3.47;;;3.38;;
22460;SDS011;11397;48.410;11.468;2023-08-08T11:19:13;3.80;;;3.70;;
22460;SDS011;11397;48.410;11.468;2023-08-08T11:24:17;3.70;;;3.60;;
22460;SDS011;11397;48.410;11.468;2023-08-08T11:29:20;3.90;;;3.80;;
22460;SDS011;11397;48.410;11.468;2023-08-08T11:34:25;3.80;;;3.70;;
22460;SDS011;11397;48.410;11.468;2023-08-08T11:39:26;3.90;;;3.80;;
22460;SDS011;11397;48.410;11.468;2023-08-08T11:44:29;3.60;;;3.50;;
22460;SDS011;11397;48.410;11.468;2023-08-08T11:49:39;3.53;;;3.42;;
22460;SDS011;11397;48.410;11.468;2023-08-08T11:54:41;3.85;;;3.75;;
22460;SDS011;11397;48.410;11.468;2023-08-08T11:59:43;3.70;;;3.60;;
22460;SDS011;11397;48.410;11.468;2023-08-08T12:04:46;3.60;;;3.50;;
22460;SDS011;11397;48.410;11.468;2023-08-08T12:09:48;4.00;;;3.90;;
22460;SDS011;11397;48.410;11.468;2023-08-08T12:14:50;3.80;;;3.70;;
22460;SDS011;11397;48.410;11.468;2023-08-08T12:19:53;4.00;;;3.90;;
22460;SDS011;11397;48.410;11.468;2023-08-08T12:24:55;3.47;;;3.38;;
22460;SDS011;11397;48.410;11.468;2023-08-08T12:29:57;3.80;;;3.70;;
22460;SDS011;11397;48.410;11.468;2023-08-08T12:35:00;3.90;;;3.80;;
22460;SDS011;11397;48.410;11.468;2023-08-08T12:40:02;3.78;;;3.67;;
22460;SDS011;11397;48.410;11.468;2023-08-08T12:45:06;3.80;;;3.70;;
22460;SDS011;11397;48.410;11.468;2023-08-08T12:50:11;3.95;;;3.85;;
22460;SDS011;11397;48.410;11.468;2023-08-08T12:55:13;3.70;;;3.60;;
22460;SDS011;11397;48.410;11.468;2023-08-08T13:00:17;3.90;;;3.80;;
22460;SDS011;11397;48.410;11.468;2023-08-08T13:05:21;3.90;;;3.80;;
22460;SDS011;11397;48.410;11.468;2023-08-08T13:10:22;3.63;;;3.53;;
22460;SDS011;11397;48.410;11.468;2023-08-08T13:15:25;3.70;;;3.60;;
22460;SDS011;11397;48.410;11.468;2023-08-08T13:20:28;3.58;;;3.47;;
22460;SDS011;11397;48.410;11.468;2023-08-08T13:25:30;3.50;;;3.40;;
22460;SDS011;11397;48.410;11.468;2023-08-08T13:30:34;3.60;;;3.50;;
22460;SDS011;11397;48.410;11.468;2023-08-08T13:35:38;3.58;;;3.47;;
22460;SDS011;11397;48.410;11.468;2023-08-08T13:40:40;3.53;;;3.42;;
22460;SDS011;11397;48.410;11.468;2023-08-08T13:45:42;3.70;;;3.60;;
22460;SDS011;11397;48.410;11.468;2023-08-08T13:50:46;3.55;;;3.45;;
22460;SDS011;11397;48.410;11.468;2023-08-08T13:55:48;3.70;;;3.60;;
22460;SDS011;11397;48.410;11.468;2023-08-08T14:00:50;3.83;;;3.72;;
22460;SDS011;11397;48.410;11.468;2023-08-08T14:05:54;3.75;;;3.65;;
22460;SDS011;11397;48.410;11.468;2023-08-08T14:10:56;3.50;;;3.40;;
22460;SDS011;11397;48.410;11.468;2023-08-08T14:15:58;3.85;;;3.75;;
22460;SDS011;11397;48.410;11.468;2023-08-08T14:21:01;3.55;;;3.45;;
22460;SDS011;11397;48.410;11.468;2023-08-08T14:26:06;3.50;;;3.40;;
22460;SDS011;11397;48.410;11.468;2023-08-08T14:31:09;3.70;;;3.60;;
22460;SDS011;11397;48.410;11.468;2023-08-08T14:36:12;3.80;;;3.70;;
22460;SDS011;11397;48.410;11.468;2023-08-08T14:41:14;3.60;;;3.50;;
22460;SDS011;11397;48.410;11.468;2023-08-08T14:46:18;3.50;;;3.40;;
22460;SDS011;11397;48.410;11.468;2023-08-08T14:51:22;4.10;;;4.00;;
22460;SDS011;11397;48.410;11.468;2023-08-08T14:56:25;3.63;;;3.53;;
22460;SDS011;11397;48.410;11.468;2023-08-08T15:01:27;3.80;;;3.70;;
22460;SDS011;11397;48.410;11.468;2023-08-08T15:06:30;3.45;;;3.35;;
22460;SDS011;11397;48.410;11.468;2023-08-08T15:11:32;3.50;;;3.40;;
22460;SDS011;11397;48.410;11.468;2023-08-08T15:16:34;3.60;;;3.50;;
22460;SDS011;11397;48.410;11.468;2023-08-08T15:21:37;3.22;;;3.13;;
22460;SDS011;11397;48.410;11.468;2023-08-08T15:26:39;3.30;;;3.20;;
22460;SDS011;11397;48.410;11.468;2023-08-08T15:31:41;3.60;;;3.50;;
22460;SDS011;11397;48.410;11.468;2023-08-08T15:36:44;3.50;;;3.40;;
22460;SDS011;11397;48.410;11.468;2023-08-08T15:41:46;3.50;;;3.40;;
22460;SDS011;11397;48.410;11.468;2023-08-08T15:46:48;3.60;;;3.50;;
22460;SDS011;11397;48.410;11.468;2023-08-08T15:51:51;3.90;;;3.80;;
22460;SDS011;11397;48.410;11.468;2023-08-08T15:56:57;3.55;;;3.45;;
22460;SDS011;11397;48.410;11.468;2023-08-08T16:01:58;3.35;;;3.25;;
22460;SDS011;11397;48.410;11.468;2023-08-08T16:07:02;4.00;;;3.90;;
22460;SDS011;11397;48.410;11.468;2023-08-08T16:12:04;3.75;;;3.65;;
22460;SDS011;11397;48.410;11.468;2023-08-08T16:17:06;3.60;;;3.50;;
22460;SDS011;11397;48.410;11.468;2023-08-08T16:22:09;3.30;;;3.20;;
22460;SDS011;11397;48.410;11.468;2023-08-08T16:27:11;3.17;;;3.08;;
22460;SDS011;11397;48.410;11.468;2023-08-08T16:32:13;3.70;;;3.60;;
22460;SDS011;11397;48.410;11.468;2023-08-08T16:37:16;3.53;;;3.42;;
22460;SDS011;11397;48.410;11.468;2023-08-08T16:42:18;3.47;;;3.38;;
22460;SDS011;11397;48.410;11.468;2023-08-08T16:47:19;3.40;;;3.30;;
22460;SDS011;11397;48.410;11.468;2023-08-08T16:52:23;3.70;;;3.60;;
22460;SDS011;11397;48.410;11.468;2023-08-08T16:57:24;3.30;;;3.20;;
22460;SDS011;11397;48.410;11.468;2023-08-08T17:02:26;3.53;;;3.42;;
22460;SDS011;11397;48.410;11.468;2023-08-08T17:07:30;3.70;;;3.60;;
22460;SDS011;11397;48.410;11.468;2023-08-08T17:12:31;3.80;;;3.70;;
22460;SDS011;11397;48.410;11.468;2023-08-08T17:17:33;3.55;;;3.45;;
22460;SDS011;11397;48.410;11.468;2023-08-08T17:22:36;3.60;;;3.50;;
22460;SDS011;11397;48.410;11.468;2023-08-08T17:27:38;3.60;;;3.50;;
22460;SDS011;11397;48.410;11.468;2023-08-08T17:32:40;3.42;;;3.30;;
22460;SDS011;11397;48.410;11.468;2023-08-08T17:37:43;3.70;;;3.60;;
22460;SDS011;11397;48.410;11.468;2023-08-08T17:42:45;3.92;;;3.83;;
22460;SDS011;11397;48.410;11.468;2023-08-08T17:47:46;3.63;;;3.53;;
22460;SDS011;11397;48.410;11.468;2023-08-08T17:52:50;3.80;;;3.70;;
22460;SDS011;11397;48.410;11.468;2023-08-08T17:57:51;3.38;;;3.28;;
22460;SDS011;11397;48.410;11.468;2023-08-08T18:02:53;3.60;;;3.50;;
22460;SDS011;11397;48.410;11.468;2023-08-08T18:07:57;3.47;;;3.38;;
22460;SDS011;11397;48.410;11.468;2023-08-08T18:12:59;3.80;;;3.70;;
22460;SDS011;11397;48.410;11.468;2023-08-08T18:18:01;3.70;;;3.60;;
22460;SDS011;11397;48.410;11.468;2023-08-08T18:23:05;3.58;;;3.47;;
22460;SDS011;11397;48.410;11.468;2023-08-08T18:28:08;3.38;;;3.28;;
22460;SDS011;11397;48.410;11.468;2023-08-08T18:33:10;3.70;;;3.60;;
22460;SDS011;11397;48.410;11.468;2023-08-08T18:38:13;3.90;;;3.80;;
22460;SDS011;11397;48.410;11.468;2023-08-08T18:43:15;3.80;;;3.70;;
22460;SDS011;11397;48.410;11.468;2023-08-08T18:48:17;3.80;;;3.70;;
22460;SDS011;11397;48.410;11.468;2023-08-08T18:53:20;3.70;;;3.60;;
22460;SDS011;11397;48.410;11.468;2023-08-08T18:58:22;3.70;;;3.60;;
22460;SDS011;11397;48.410;11.468;2023-08-08T19:03:24;3.70;;;3.60;;
22460;SDS011;11397;48.410;11.468;2023-08-08T19:08:27;3.83;;;3.72;;
22460;SDS011;11397;48.410;11.468;2023-08-08T19:13:29;4.03;;;3.92;;
22460;SDS011;11397;48.410;11.468;2023-08-08T19:18:30;3.70;;;3.60;;
22460;SDS011;11397;48.410;11.468;2023-08-08T19:23:33;3.80;;;3.70;;
22460;SDS011;11397;48.410;11.468;2023-08-08T19:28:36;3.85;;;3.75;;
22460;SDS011;11397;48.410;11.468;2023-08-08T19:33:38;3.90;;;3.80;;
22460;SDS011;11397;48.410;11.468;2023-08-08T19:38:41;4.03;;;3.92;;
22460;SDS011;11397;48.410;11.468;2023-08-08T19:43:43;3.97;;;3.88;;
22460;SDS011;11397;48.410;11.468;2023-08-08T19:48:45;3.80;;;3.70;;
22460;SDS011;11397;48.410;11.468;2023-08-08T19:53:49;3.50;;;3.40;;
22460;SDS011;11397;48.410;11.468;2023-08-08T19:58:51;3.80;;;3.70;;
22460;SDS011;11397;48.410;11.468;2023-08-08T20:03:53;4.03;;;3.92;;
22460;SDS011;11397;48.410;11.468;2023-08-08T20:08:56;3.75;;;3.65;;
22460;SDS011;11397;48.410;11.468;2023-08-08T20:13:57;3.80;;;3.70;;
22460;SDS011;11397;48.410;11.468;2023-08-08T20:18:59;3.85;;;3.75;;
22460;SDS011;11397;48.410;11.468;2023-08-08T20:24:03;3.50;;;3.40;;
22460;SDS011;11397;48.410;11.468;2023-08-08T20:29:06;3.95;;;3.85;;
22460;SDS011;11397;48.410;11.468;2023-08-08T20:34:08;3.85;;;3.75;;
22460;SDS011;11397;48.410;11.468;2023-08-08T20:39:12;3.78;;;3.67;;
22460;SDS011;11397;48.410;11.468;2023-08-08T20:44:14;3.88;;;3.78;;
22460;SDS011;11397;48.410;11.468;2023-08-08T20:49:16;3.63;;;3.53;;
22460;SDS011;11397;48.410;11.468;2023-08-08T20:54:19;3.88;;;3.78;;
22460;SDS011;11397;48.410;11.468;2023-08-08T20:59:21;4.25;;;4.15;;
22460;SDS011;11397;48.410;11.468;2023-08-08T21:04:23;4.18;;;4.07;;
22460;SDS011;11397;48.410;11.468;2023-08-08T21:09:26;4.15;;;4.05;;
22460;SDS011;11397;48.410;11.468;2023-08-08T21:14:28;4.20;;;4.10;;
22460;SDS011;11397;48.410;11.468;2023-08-08T21:19:30;4.30;;;4.20;;
22460;SDS011;11397;48.410;11.468;2023-08-08T21:24:33;4.32;;;4.22;;
22460;SDS011;11397;48.410;11.468;2023-08-08T21:29:35;4.03;;;3.92;;
22460;SDS011;11397;48.410;11.468;2023-08-08T21:34:36;4.43;;;4.32;;
22460;SDS011;11397;48.410;11.468;2023-08-08T21:39:39;4.50;;;4.40;;
22460;SDS011;11397;48.410;11.468;2023-08-08T21:44:41;4.60;;;4.50;;
22460;SDS011;11397;48.410;11.468;2023-08-08T21:49:43;4.60;;;4.50;;
22460;SDS011;11397;48.410;11.468;2023-08-08T21:54:46;4.20;;;4.10;;
22460;SDS011;11397;48.410;11.468;2023-08-08T21:59:48;4.20;;;4.10;;
22460;SDS011;11397;48.410;11.468;2023-08-08T22:04:49;4.40;;;4.30;;
22460;SDS011;11397;48.410;11.468;2023-08-08T22:09:54;4.22;;;4.13;;
22460;SDS011;11397;48.410;11.468;2023-08-08T22:14:55;4.60;;;4.50;;
22460;SDS011;11397;48.410;11.468;2023-08-08T22:19:57;4.25;;;4.15;;
22460;SDS011;11397;48.410;11.468;2023-08-08T22:25:00;4.60;;;4.50;;
22460;SDS011;11397;48.410;11.468;2023-08-08T22:30:02;4.60;;;4.50;;
22460;SDS011;11397;48.410;11.468;2023-08-08T22:35:04;4.47;;;4.38;;
22460;SDS011;11397;48.410;11.468;2023-08-08T22:40:08;4.60;;;4.50;;
22460;SDS011;11397;48.410;11.468;2023-08-08T22:45:10;4.40;;;4.30;;
22460;SDS011;11397;48.410;11.468;2023-08-08T22:50:12;4.50;;;4.40;;
22460;SDS011;11397;48.410;11.468;2023-08-08T22:55:15;4.47;;;4.38;;
22460;SDS011;11397;48.410;11.468;2023-08-08T23:00:17;4.60;;;4.50;;
22460;SDS011;11397;48.410;11.468;2023-08-08T23:05:19;4.50;;;4.40;;
22460;SDS011;11397;48.410;11.468;2023-08-08T23:10:22;4.50;;;4.40;;
22460;SDS011;11397;48.410;11.468;2023-08-08T23:15:24;4.20;;;4.10;;
22460;SDS011;11397;48.410;11.468;2023-08-08T23:20:26;4.65;;;4.55;;
22460;SDS011;11397;48.410;11.468;2023-08-08T23:25:29;4.28;;;4.18;;
22460;SDS011;11397;48.410;11.468;2023-08-08T23:30:31;4.32;;;4.22;;
22460;SDS011;11397;48.410;11.468;2023-08-08T23:35:34;4.57;;;4.47;;
22460;SDS011;11397;48.410;11.468;2023-08-08T23:40:37;4.50;;;4.40;;
22460;SDS011;11397;48.410;11.468;2023-08-08T23:45:38;4.47;;;4.38;;
22460;SDS011;11397;48.410;11.468;2023-08-08T23:50:40;4.28;;;4.18;;
22460;SDS011;11397;48.410;11.468;2023-08-08T23:55:44;4.28;;;4.18;;
